Startpagina
METAR-TAF:

METAR-TAF

Vliegvelden :

Cerklje ob Krki, Slovenië

breedte: 45-53-59N, lengte: 15-30-55E, hoogte: 157 m

Actueel weer

Dit bericht is 31 minuten geleden gemaakt, om 11:00 UTC
Wind 3 kt uit het oostnoordoosten, variërend tussen het noordnoordoosten en het oostzuidoosten
Temperatuur 13°C
Vochtigheid 62%
Druk 1031 hPa
Zicht 10 km of meer
Weinig wolken op 2300 ft
Gebroken wolken op 4300 ft

METAR: LJCE 141100Z 06003KT 020V120 9999 FEW023 BKN043 13/06 Q1031 RMK BLU

Tijdstip: 12:31 (11:31 UTC)

Verwachting

Dit bericht is 3 uur en het 31 minuten geleden gemaakt, om 08:00 UTC
Verwachting geldig van 14 om 09 UTC tot 14 om 18 UTC
Wind 5 kt uit het oosten
Zicht 10 km of meer
Gebroken wolken op 2500 ft

TAF: LJCE 140800Z 1409/1418 08005KT 9999 BKN025

Waarnemingen en weersverwachtingen van meer dan 4000 vliegvelden (METAR en TAF).

De beschikbare stations zijn de gele en rode punten op de kaart.

Ga met uw muis naar het station om de naam te zien.

Klik dan om waarnemingen en weersverwachtingen te zien.

kaart wijzigen: klik op de groene knoppen met een zwart kruis om in te zoomen, op de groene knop met een streepje om uit te zoomen of op de groene pijlen voor aangrenzende kaarten.


METAR-TAF: